Latest Weather Observations for Cape Moreton

IDQ60801

Issued at 2:32 am EST Sunday 20 August 2017 (issued every 30 minutes, with the page automatically refreshed every 10 minutes)

About weather observations | Map of weather stations | Latest weather observations for QLD | Other Formats
Station Details ID: 040043 Name: CAPE MORETON LIGHTHOUSE Lat: -27.03 Lon: 153.47 Height: 99.9 m
Data from the previous 72 hours. | See also: Recent months at Cape Moreton
Date/Time
EST
Temp
°C
App
Temp
°C
Dew
Point
°C
Rel
Hum
%
Delta-T
°C
Wind Press
QNH
hPa
Press
MSL
hPa
Rain since
9am
mm
Dir  Spd
km/h
Gust
km/h
Spd
kts
Gust
kts
20/02:30am 12.4 4.9 -1.5 38 5.6 SW 28 41 15 22 1016.4 1016.2 0.0
20/02:00am 12.5 5.0 -1.4 38 5.6 SW 28 37 15 20 1016.6 1016.4 0.0
20/01:30am 12.5 5.4 -1.1 39 5.5 SW 26 35 14 19 1016.9 1016.7 0.0
20/01:00am 12.8 5.8 -0.8 39 5.5 SW 26 41 14 22 1017.0 1016.8 0.0
20/12:30am 12.9 5.8 -1.1 38 5.7 SW 26 35 14 19 1017.3 1017.1 0.0
20/12:00am 13.3 6.1 -1.8 35 6.0 SW 26 37 14 20 1017.3 1017.1 0.0
 
Date/Time
EST
Temp
°C
App
Temp
°C
Dew
Point
°C
Rel
Hum
%
Delta-T
°C
Wind Press
QNH
hPa
Press
MSL
hPa
Rain since
9am
mm
Dir  Spd
km/h
Gust
km/h
Spd
kts
Gust
kts
19/11:30pm 13.5 5.9 -2.0 34 6.2 SW 28 41 15 22 1017.5 1017.3 0.0
19/11:00pm 13.7 6.5 -1.9 34 6.3 SW 26 39 14 21 1017.6 1017.4 0.0
19/10:30pm 13.9 6.8 -1.3 35 6.2 SW 26 35 14 19 1017.7 1017.5 0.0
19/10:00pm 14.2 6.7 -1.4 34 6.4 SW 28 39 15 21 1017.5 1017.3 0.0
19/09:30pm 14.4 7.6 -1.6 33 6.5 SW 24 35 13 19 1017.4 1017.2 0.0
19/09:00pm 14.9 6.5 -2.1 31 6.9 SW 32 43 17 23 1017.1 1016.9 0.0
19/08:30pm 15.3 6.9 -2.2 30 7.1 SW 32 46 17 25 1016.9 1016.7 0.0
19/08:00pm 15.3 8.1 -2.2 30 7.1 WSW 26 43 14 23 1016.9 1016.7 0.0
19/07:30pm 15.5 7.9 -2.4 29 7.2 SW 28 39 15 21 1016.4 1016.2 0.0
19/07:00pm 15.8 7.8 -2.6 28 7.4 WSW 30 44 16 24 1015.9 1015.7 0.0
19/06:49pm 15.9 8.2 -2.6 28 7.5 WSW 28 46 15 25 1015.9 1015.7 0.0
19/06:30pm 16.0 7.8 -4.0 25 7.9 WSW 30 43 16 23 1015.5 1015.3 0.0
19/06:00pm 16.1 8.0 -3.4 26 7.8 WSW 30 41 16 22 1015.1 1014.9 0.0
19/05:30pm 16.3 7.8 -3.2 26 7.8 WSW 32 50 17 27 1014.7 1014.5 0.0
19/05:11pm 16.6 8.3 -2.0 28 7.7 WSW 32 50 17 27 1014.3 1014.1 0.0
19/05:00pm 17.0 8.6 -2.6 26 8.0 WSW 32 46 17 25 1014.2 1014.0 0.0
19/04:30pm 17.6 9.0 -2.6 25 8.3 WSW 33 52 18 28 1013.9 1013.7 0.0
19/04:00pm 18.0 9.5 -1.8 26 8.3 WSW 33 54 18 29 1013.5 1013.3 0.0
19/03:30pm 18.1 8.7 -3.3 23 8.7 WSW 37 61 20 33 1013.2 1013.0 0.0
19/03:07pm 18.2 7.8 -2.1 25 8.5 WSW 43 61 23 33 1013.2 1013.0 0.0
19/03:00pm 18.0 7.3 -2.3 25 8.4 WSW 44 61 24 33 1013.1 1012.9 0.0
19/02:30pm 17.9 8.0 -3.5 23 8.7 WSW 39 63 21 34 1012.9 1012.7 0.0
19/02:00pm 17.9 7.4 -2.4 25 8.4 WSW 43 61 23 33 1013.0 1012.8 0.0
19/01:30pm 17.7 7.7 -1.5 27 8.1 WSW 41 61 22 33 1013.3 1013.1 0.0
19/01:00pm 17.8 8.6 -1.4 27 8.1 WSW 37 56 20 30 1013.7 1013.5 0.0
19/12:30pm 17.8 8.4 -2.5 25 8.4 WSW 37 57 20 31 1014.0 1013.8 0.0
19/12:00pm 17.9 9.0 -1.9 26 8.3 WSW 35 59 19 32 1014.6 1014.4 0.0
19/11:30am 17.5 9.3 -1.2 28 7.9 WSW 32 50 17 27 1015.1 1014.9 0.0
19/11:00am 16.2 7.9 -1.8 29 7.4 WSW 32 56 17 30 1015.5 1015.3 0.0
19/10:35am 16.1 7.8 -1.9 29 7.4 WSW 32 56 17 30 1016.1 1015.9 0.0
19/10:30am 15.9 8.1 -0.8 32 7.0 WSW 30 44 16 24 1016.2 1016.0 0.0
19/10:00am 15.5 6.8 -0.7 33 6.8 WSW 35 57 19 31 1016.4 1016.2 0.0
19/09:30am 15.3 6.5 -1.3 32 6.9 WSW 35 59 19 32 1016.5 1016.3 0.0
19/09:01am 14.9 5.7 -1.2 33 6.7 WSW 37 56 20 30 1016.6 1016.4 0.0
19/09:00am 14.9 5.3 -1.2 33 6.6 WSW 39 56 21 30 1016.6 1016.4 0.0
19/08:30am 14.5 4.6 -0.8 35 6.4 WSW 41 67 22 36 1016.6 1016.4 0.0
19/08:00am 14.2 4.7 -1.0 35 6.3 WSW 39 57 21 31 1016.4 1016.2 0.0
19/07:30am 13.9 3.5 -2.1 33 6.4 WSW 43 65 23 35 1015.8 1015.6 0.0
19/07:00am 13.8 3.4 -1.8 34 6.3 SW 43 65 23 35 1015.5 1015.3 0.0
19/06:30am 13.8 3.3 -2.2 33 6.4 SW 43 65 23 35 1015.2 1015.0 0.0
19/06:00am 13.9 4.4 -0.5 37 6.0 SW 39 59 21 32 1015.1 1014.9 0.0
19/05:30am 14.2 3.9 -1.0 35 6.3 SW 43 65 23 35 1014.7 1014.5 0.0
19/05:01am 14.4 4.5 -1.2 34 6.4 SW 41 59 22 32 1014.6 1014.4 0.0
19/05:00am 14.4 4.1 -1.2 34 6.4 SW 43 59 23 32 1014.6 1014.4 0.0
19/04:30am 14.7 4.5 -0.6 35 6.4 SW 43 63 23 34 1014.5 1014.3 0.0
19/04:00am 14.9 5.8 -0.8 34 6.5 SW 37 56 20 30 1014.6 1014.4 0.0
19/03:30am 15.1 6.4 -0.2 35 6.5 SW 35 56 19 30 1014.6 1014.4 0.0
19/03:19am 15.2 6.9 -0.5 34 6.6 SW 33 52 18 28 1014.7 1014.5 0.0
19/03:00am 15.2 7.0 0.2 36 6.4 SW 33 46 18 25 1014.9 1014.7 0.0
19/02:30am 15.6 7.4 0.2 35 6.6 WSW 33 50 18 27 1015.0 1014.8 0.0
19/02:13am 15.9 7.3 0.1 34 6.8 WSW 35 54 19 29 1015.0 1014.8 0.0
19/02:00am 16.0 7.4 0.2 34 6.8 SW 35 50 19 27 1015.3 1015.1 0.0
19/01:43am 16.1 8.5 0.3 34 6.8 SW 30 48 16 26 1015.5 1015.3 0.0
19/01:30am 16.2 8.6 0.3 34 6.9 SW 30 44 16 24 1015.6 1015.4 0.0
19/01:01am 16.5 9.2 0.2 33 7.0 SW 28 46 15 25 1015.8 1015.6 0.0
19/01:00am 16.5 8.8 0.2 33 7.0 SW 30 46 16 25 1015.8 1015.6 0.0
19/12:30am 17.1 8.1 -0.1 31 7.4 SW 37 57 20 31 1015.6 1015.4 0.0
19/12:01am 17.4 9.1 -0.3 30 7.6 SW 33 54 18 29 1015.7 1015.5 0.0
19/12:00am 17.3 9.2 0.0 31 7.5 SW 32 48 17 26 1015.7 1015.5 0.0
 
Date/Time
EST
Temp
°C
App
Temp
°C
Dew
Point
°C
Rel
Hum
%
Delta-T
°C
Wind Press
QNH
hPa
Press
MSL
hPa
Rain since
9am
mm
Dir  Spd
km/h
Gust
km/h
Spd
kts
Gust
kts
18/11:30pm 17.6 9.6 0.7 32 7.5 SW 32 50 17 27 1015.8 1015.6 0.0
18/11:00pm 18.1 10.1 0.3 30 7.8 SW 32 50 17 27 1015.6 1015.4 0.0
18/10:30pm 18.1 11.2 0.3 30 7.8 SW 26 39 14 21 1015.7 1015.5 0.0
18/10:00pm 18.3 11.8 2.6 35 7.2 WSW 26 43 14 23 1015.7 1015.5 0.0
18/09:30pm 18.5 11.7 1.1 31 7.8 WSW 26 37 14 20 1015.5 1015.3 0.0
18/09:00pm 19.2 12.0 0.8 29 8.2 WSW 28 37 15 20 1015.3 1015.1 0.0
18/08:30pm 19.1 13.2 3.7 36 7.3 WSW 24 37 13 20 1015.3 1015.1 0.0
18/08:00pm 19.6 13.1 0.1 27 8.6 SW 24 35 13 19 1015.1 1014.9 0.0
18/07:30pm 20.4 13.0 -0.8 24 9.3 SW 28 39 15 21 1014.6 1014.4 0.0
18/07:00pm 20.7 12.3 -1.1 23 9.5 SW 33 48 18 26 1014.4 1014.2 0.0
18/06:47pm 20.9 13.5 -1.0 23 9.6 SW 28 46 15 25 1014.2 1014.0 0.0
18/06:30pm 20.9 13.5 -1.0 23 9.6 SW 28 44 15 24 1014.0 1013.8 0.0
18/06:00pm 20.6 14.8 4.2 34 7.9 SW 24 35 13 19 1013.6 1013.4 0.0
18/05:30pm 21.2 14.7 2.5 29 8.8 SW 26 37 14 20 1013.1 1012.9 0.0
18/05:00pm 22.4 15.7 1.4 25 9.8 SW 26 37 14 20 1012.5 1012.4 0.0
18/04:30pm 23.2 15.9 0.3 22 10.5 WSW 28 39 15 21 1012.0 1011.9 0.0
18/04:00pm 23.8 16.1 0.2 21 10.9 WSW 30 48 16 26 1011.6 1011.5 0.0
18/03:56pm 24.0 16.7 -0.3 20 11.1 WSW 28 46 15 25 1011.6 1011.5 0.0
18/03:30pm 24.5 16.7 -0.6 19 11.4 WSW 30 44 16 24 1011.5 1011.4 0.0
18/03:00pm 24.4 18.2 1.9 23 10.7 W 24 43 13 23 1011.4 1011.3 0.0
18/02:30pm 24.8 19.0 2.3 23 10.8 WSW 22 33 12 18 1011.7 1011.6 0.0
18/02:00pm 24.1 18.2 1.7 23 10.6 W 22 32 12 17 1011.9 1011.8 0.0
18/01:30pm 24.5 18.8 2.6 24 10.6 W 22 33 12 18 1012.2 1012.1 0.0
18/01:00pm 24.1 17.5 2.3 24 10.5 WSW 26 43 14 23 1012.4 1012.3 0.0
18/12:30pm 23.5 16.0 1.2 23 10.4 WSW 30 46 16 25 1012.9 1012.7 0.0
18/12:00pm 23.0 15.5 1.4 24 10.1 WSW 30 46 16 25 1013.3 1013.1 0.0
18/11:30am 22.7 14.7 1.7 25 9.8 WSW 33 52 18 28 1013.8 1013.6 0.0
18/11:01am 22.1 13.3 1.2 25 9.7 WSW 37 56 20 30 1014.3 1014.1 0.0
18/11:00am 22.3 13.7 2.4 27 9.4 WSW 37 52 20 28 1014.4 1014.2 0.0
18/10:35am 21.8 13.3 0.9 25 9.6 WSW 35 54 19 29 1014.7 1014.5 0.0
18/10:30am 21.7 13.1 0.3 24 9.7 WSW 35 50 19 27 1014.7 1014.5 0.0
18/10:24am 21.6 13.7 0.8 25 9.5 WSW 32 50 17 27 1014.9 1014.7 0.0
18/10:00am 21.5 15.5 3.2 30 8.7 WSW 24 33 13 18 1015.3 1015.1 0.0
18/09:30am 20.9 14.8 2.7 30 8.6 WSW 24 41 13 22 1015.6 1015.4 0.0
18/09:05am 20.5 13.6 2.8 31 8.3 WSW 28 46 15 25 1015.5 1015.3 0.0
18/09:00am 20.4 14.5 4.0 34 7.9 WSW 24 41 13 22 1015.6 1015.4 0.0
18/08:30am 19.7 14.4 5.0 38 7.2 WSW 22 32 12 17 1015.7 1015.5 0.0
18/08:00am 19.2 14.7 7.0 45 6.2 WSW 20 32 11 17 1015.4 1015.2 0.0
18/07:30am 18.6 13.0 5.5 42 6.4 WSW 24 35 13 19 1014.9 1014.7 0.0
18/07:00am 18.1 11.9 6.3 46 5.9 WSW 28 35 15 19 1014.6 1014.4 0.0
18/06:30am 17.7 12.7 6.6 48 5.5 WSW 22 30 12 16 1014.4 1014.2 0.0
18/06:00am 18.5 13.2 6.7 46 5.9 WSW 24 32 13 17 1014.1 1013.9 0.0
18/05:30am 18.7 13.9 7.2 47 5.8 WSW 22 33 12 18 1013.8 1013.6 0.0
18/05:00am 18.6 14.1 8.6 52 5.2 WSW 22 32 12 17 1013.3 1013.1 0.0
18/04:30am 18.5 14.6 9.6 56 4.7 WSW 20 28 11 15 1013.1 1012.9 0.0
18/04:00am 18.8 15.2 10.4 58 4.5 WSW 20 28 11 15 1012.8 1012.6 0.0
18/03:30am 19.4 15.2 9.9 54 5.1 WSW 22 28 12 15 1012.5 1012.4 0.0
18/03:00am 19.9 15.3 8.3 47 6.1 WSW 22 33 12 18 1012.5 1012.4 0.0
18/02:30am 20.5 15.2 6.8 41 7.0 SW 24 33 13 18 1012.3 1012.2 0.0
18/02:00am 20.7 15.6 7.7 43 6.7 WSW 24 33 13 18 1012.3 1012.2 0.0
18/01:30am 20.9 15.4 7.5 42 6.9 WSW 26 35 14 19 1012.4 1012.3 0.0
18/01:00am 20.8 15.5 8.4 45 6.5 WSW 26 33 14 18 1012.4 1012.3 0.0
18/12:30am 21.1 17.0 10.0 49 6.0 SW 22 33 12 18 1012.9 1012.7 0.0
18/12:00am 19.9 19.4 18.7 93 0.8 WSW 19 24 10 13 1012.8 1012.6 0.0
 
Date/Time
EST
Temp
°C
App
Temp
°C
Dew
Point
°C
Rel
Hum
%
Delta-T
°C
Wind Press
QNH
hPa
Press
MSL
hPa
Rain since
9am
mm
Dir  Spd
km/h
Gust
km/h
Spd
kts
Gust
kts
17/11:30pm 21.1 20.4 19.6 91 1.0 WNW 22 26 12 14 1012.5 1012.4 0.0
17/11:00pm 21.6 20.7 19.0 85 1.6 WNW 22 26 12 14 1012.4 1012.3 0.0
17/10:30pm 22.0 21.0 18.0 78 2.5 WNW 20 28 11 15 1012.4 1012.3 0.0
17/10:00pm 22.0 21.0 18.0 78 2.5 WNW 20 26 11 14 1012.3 1012.2 0.0
17/09:30pm 21.9 20.5 18.7 82 2.0 WNW 24 32 13 17 1012.1 1012.0 0.0
17/09:00pm 21.0 21.3 20.8 99 0.1 NW 20 26 11 14 1012.1 1012.0 0.0
17/08:30pm 21.3 20.6 21.1 99 0.1 NW 26 32 14 17 1012.0 1011.9 0.0
17/08:00pm 21.3 21.0 21.1 99 0.1 NW 24 28 13 15 1011.7 1011.6 0.0
17/07:30pm 21.3 21.4 21.1 99 0.1 NW 22 30 12 16 1011.4 1011.3 0.0
17/07:00pm 21.4 21.5 21.2 99 0.1 NNW 22 30 12 16 1010.9 1010.7 0.0
17/06:30pm 21.5 20.9 21.3 99 0.1 NNW 26 35 14 19 1010.2 1010.0 0.0
17/06:00pm 21.5 20.2 21.3 99 0.1 N 30 37 16 20 1009.7 1009.5 0.0
17/05:30pm 21.5 20.5 21.3 99 0.1 N 28 35 15 19 1009.4 1009.2 0.0
17/05:00pm 21.8 20.8 21.3 97 0.3 N 28 35 15 19 1009.1 1008.9 0.0
17/04:30pm 22.1 20.6 20.9 93 0.8 N 30 35 16 19 1008.7 1008.5 0.0
17/04:00pm 22.5 21.5 20.4 88 1.4 N 26 37 14 20 1008.7 1008.5 0.0
17/03:30pm 22.9 21.7 20.1 84 1.8 N 26 35 14 19 1008.6 1008.4 0.0
17/03:00pm 23.0 22.2 20.1 84 1.9 N 24 32 13 17 1008.8 1008.6 0.0
17/02:30pm 23.3 22.7 19.7 80 2.3 N 22 32 12 17 1009.0 1008.8 0.0
17/02:00pm 23.2 22.5 19.6 80 2.3 N 22 30 12 16 1009.2 1009.0 0.0
17/01:30pm 22.7 21.6 19.5 82 2.1 NNW 24 30 13 16 1009.7 1009.5 0.0
17/01:00pm 22.7 22.5 19.3 81 2.2 NNW 19 26 10 14 1010.0 1009.8 0.0
17/12:30pm 22.9 22.8 19.5 81 2.2 NNW 19 28 10 15 1010.3 1010.1 0.0
17/12:00pm 22.2 21.6 19.7 86 1.6 NNW 22 32 12 17 1010.7 1010.5 0.0
17/11:30am 22.2 21.3 19.9 87 1.5 NNW 24 32 13 17 1011.2 1011.1 0.0
17/11:00am 21.4 20.2 19.3 88 1.3 NNW 24 35 13 19 1011.9 1011.8 0.0
17/10:30am 21.3 19.4 19.4 89 1.2 NNW 28 41 15 22 1012.4 1012.3 0.0
17/10:00am 20.6 18.2 19.1 91 0.9 NW 30 39 16 21 1012.9 1012.7 0.0
17/09:30am 20.3 18.4 19.3 94 0.6 NW 28 33 15 18 1013.2 1013.0 0.0
17/09:00am 20.1 17.8 19.3 95 0.5 NW 30 37 16 20 1013.0 1012.8 0.0
17/08:30am 19.9 17.9 19.2 96 0.4 NW 28 39 15 21 1012.9 1012.7 0.0
17/08:00am 19.6 17.2 19.1 97 0.3 NW 30 39 16 21 1013.0 1012.8 0.0
17/07:30am 19.3 16.9 19.1 99 0.1 NW 30 37 16 20 1012.8 1012.6 0.0
17/07:00am 19.1 16.6 18.9 99 0.1 NW 30 41 16 22 1012.4 1012.3 0.0
17/06:30am 19.0 15.5 18.8 99 0.1 NW 35 43 19 23 1011.9 1011.8 0.0
17/06:00am 19.1 15.7 18.9 99 0.1 NW 35 44 19 24 1011.6 1011.5 0.0
17/05:30am 19.1 15.7 18.9 99 0.1 NW 35 43 19 23 1011.4 1011.3 0.0
17/05:00am 19.2 15.8 19.0 99 0.1 NW 35 44 19 24 1011.1 1011.0 0.0
17/04:30am 19.3 15.2 19.1 99 0.1 NW 39 50 21 27 1010.9 1010.7 0.0
17/04:00am 19.1 15.3 18.9 99 0.1 NW 37 48 20 26 1010.9 1010.7 0.0
17/03:30am 19.3 15.9 19.1 99 0.1 NW 35 43 19 23 1010.9 1010.7 0.0
17/03:00am 19.2 17.1 19.0 99 0.1 NW 28 39 15 21 1011.3 1011.2 0.0

Other Formats:

Comma delimited format used in spreadsheet applications
http://www.bom.gov.au/fwo/IDQ60801/IDQ60801.94594.axf

JavaScript Object Notation format (JSON) in row-major order
http://www.bom.gov.au/fwo/IDQ60801/IDQ60801.94594.json